Time;durP1;ratioP1;P1;durP2;ratioP2;P2;SDS_P1;SDS_P2;PMS_P1;PMS_P2;Temp;Humidity;BMP_temperature;BMP_pressure;BME280_temperature;BME280_humidity;BME280_pressure;Samples;Min_cycle;Max_cycle;Signal;HPM_P1;HPM_P2
2023/03/26 00:02:23;;;;;;;7.00;3.93;;;8.20;99.90;;;7.45;82.98;99782.94;4976323;28;20204;-75
2023/03/26 00:04:55;;;;;;;5.93;3.20;;;8.20;99.90;;;7.45;82.52;99780.28;4976568;28;20229;-75
2023/03/26 00:07:28;;;;;;;6.43;3.30;;;8.20;99.90;;;7.45;82.74;99782.94;4976508;28;20196;-75
2023/03/26 00:09:59;;;;;;;5.57;3.70;;;8.20;99.90;;;7.45;82.80;99793.59;4976394;28;20213;-75
2023/03/26 00:12:31;;;;;;;7.60;4.30;;;8.20;99.90;;;7.46;82.64;99797.09;4976434;28;20216;-75
2023/03/26 00:15:04;;;;;;;7.60;3.53;;;8.20;99.90;;;7.47;82.19;99796.09;4976313;28;20232;-75
2023/03/26 00:17:35;;;;;;;4.20;2.87;;;8.20;99.90;;;7.48;81.48;99792.44;4976886;28;20197;-75
2023/03/26 00:20:10;;;;;;;6.40;3.60;;;8.30;99.90;;;7.50;81.59;99799.25;4976293;28;20364;-75
2023/03/26 00:22:44;;;;;;;8.43;3.80;;;8.30;99.90;;;7.48;82.14;99803.94;4976012;28;20590;-75
2023/03/26 00:25:16;;;;;;;8.40;3.30;;;8.30;99.90;;;7.48;81.95;99797.75;4976142;28;20239;-75
2023/03/26 00:27:48;;;;;;;6.67;3.33;;;8.30;99.90;;;7.45;81.82;99801.59;4976017;28;20224;-74
2023/03/26 00:30:21;;;;;;;5.90;3.20;;;8.20;99.90;;;7.46;81.81;99805.09;4976129;28;20197;-75
2023/03/26 00:32:52;;;;;;;7.77;3.50;;;8.20;99.90;;;7.44;81.69;99807.91;4975956;28;20195;-75
2023/03/26 00:35:24;;;;;;;6.13;3.40;;;8.20;99.90;;;7.45;81.40;99814.06;4976357;28;20228;-75
2023/03/26 00:37:58;;;;;;;4.97;3.23;;;8.20;99.90;;;7.44;81.51;99813.22;4975828;28;20193;-75
2023/03/26 00:40:30;;;;;;;4.97;2.90;;;8.20;99.90;;;7.43;81.79;99810.75;4975786;28;20193;-75
2023/03/26 00:43:08;;;;;;;8.60;3.20;;;8.20;99.90;;;7.46;81.35;99815.75;4975425;28;20189;-74
2023/03/26 00:45:40;;;;;;;6.43;2.97;;;8.20;99.90;;;7.46;81.56;99810.41;4975668;28;20232;-75
2023/03/26 00:48:12;;;;;;;5.53;2.90;;;8.20;99.90;;;7.46;80.92;99816.59;4975745;28;20200;-75
2023/03/26 00:50:46;;;;;;;6.90;3.20;;;8.20;99.90;;;7.45;81.05;99814.91;4975374;28;20247;-75
2023/03/26 00:53:20;;;;;;;5.63;2.80;;;8.20;99.90;;;7.47;81.12;99812.91;4975541;28;20216;-75
2023/03/26 00:55:52;;;;;;;7.60;3.07;;;8.20;99.90;;;7.48;80.82;99819.91;4975764;28;20243;-74
2023/03/26 00:58:25;;;;;;;4.83;2.80;;;8.30;99.90;;;7.47;81.09;99812.06;4978068;28;20193;-73
2023/03/26 01:01:01;;;;;;;5.83;2.60;;;8.20;99.90;;;7.43;81.48;99824.88;4988246;28;20197;-73
2023/03/26 01:03:37;;;;;;;6.00;2.70;;;8.20;99.90;;;7.44;81.93;99823.88;4987264;28;20220;-73
2023/03/26 01:06:14;;;;;;;7.40;2.63;;;8.20;99.90;;;7.43;81.64;99832.06;4993859;28;20232;-73
2023/03/26 01:08:51;;;;;;;7.23;3.17;;;8.20;99.90;;;7.38;81.54;99829.88;4989289;28;20189;-74
2023/03/26 01:11:29;;;;;;;8.17;2.67;;;8.20;99.90;;;7.39;81.46;99834.22;4975278;28;20192;-74
2023/03/26 01:14:06;;;;;;;15.80;3.70;;;8.20;99.90;;;7.36;81.41;99823.88;4975338;28;20200;-75
2023/03/26 01:16:43;;;;;;;6.33;2.40;;;8.20;99.90;;;7.36;80.99;99837.19;4975027;28;20240;-74
2023/03/26 01:19:25;;;;;;;7.87;2.47;;;8.10;99.90;;;7.36;80.98;99841.69;4974945;28;20668;-75
2023/03/26 01:21:57;;;;;;;8.90;2.27;;;8.10;99.90;;;7.35;80.48;99845.34;4975047;28;20204;-75
2023/03/26 01:24:31;;;;;;;5.70;2.23;;;8.10;99.90;;;7.35;80.70;99851.50;4974768;28;20571;-75
2023/03/26 01:27:16;;;;;;;7.77;2.37;;;8.20;99.90;;;7.33;80.61;99845.47;4975100;28;20201;-75
2023/03/26 01:29:56;;;;;;;7.57;2.43;;;8.10;99.90;;;7.33;80.90;99842.81;4974993;28;20189;-75
2023/03/26 01:32:42;;;;;;;5.30;2.33;;;8.10;99.90;;;7.31;80.92;99852.81;4974985;28;20193;-75
2023/03/26 01:35:24;;;;;;;6.60;2.30;;;8.10;99.90;;;7.29;81.11;99845.97;4974604;28;20760;-75
2023/03/26 01:38:10;;;;;;;6.07;2.10;;;8.10;99.90;;;7.26;80.86;99839.13;4974903;28;20588;-75
2023/03/26 01:40:49;;;;;;;4.93;2.27;;;8.10;99.90;;;7.27;81.32;99837.31;4974879;28;20199;-75
2023/03/26 01:43:30;;;;;;;8.40;2.60;;;8.00;99.90;;;7.26;81.10;99840.97;4974780;28;20279;-75
2023/03/26 01:46:07;;;;;;;5.50;2.40;;;8.00;99.90;;;7.25;80.84;99833.97;4974722;28;20243;-74
2023/03/26 01:48:43;;;;;;;6.83;2.63;;;8.00;99.90;;;7.22;81.00;99835.16;4974731;28;20189;-74
2023/03/26 01:51:26;;;;;;;4.93;2.33;;;8.00;99.90;;;7.21;81.05;99844.13;4974721;28;20211;-74
2023/03/26 01:54:01;;;;;;;4.73;1.90;;;8.00;99.90;;;7.19;80.29;99838.13;4974677;28;20275;-74
2023/03/26 01:56:44;;;;;;;6.63;2.23;;;8.00;99.90;;;7.18;79.86;99827.63;4974540;28;20267;-75
2023/03/26 01:59:45;;;;;;;6.47;2.00;;;8.00;99.90;;;7.18;79.39;99839.13;4974668;28;20193;-75
2023/03/26 02:02:27;;;;;;;6.80;2.60;;;8.00;99.90;;;7.13;79.96;99830.75;4975621;28;20618;-75
2023/03/26 02:05:12;;;;;;;5.17;3.60;;;7.90;99.90;;;7.12;79.61;99829.94;4978230;28;20780;-75
2023/03/26 02:07:50;;;;;;;6.97;2.23;;;7.90;99.90;;;7.09;79.80;99834.72;4978566;28;20189;-75
2023/03/26 02:10:27;;;;;;;7.43;2.40;;;7.90;99.90;;;7.09;80.21;99830.25;4978233;28;20200;-75
2023/03/26 02:13:01;;;;;;;5.23;2.23;;;7.90;99.90;;;7.07;79.70;99826.94;4978971;28;20207;-75
2023/03/26 02:15:34;;;;;;;4.03;2.17;;;7.90;99.90;;;7.04;80.05;99826.41;4978325;28;20231;-75
2023/03/26 02:18:09;;;;;;;3.80;2.13;;;7.80;99.90;;;7.07;79.43;99826.09;4978019;28;20583;-75
2023/03/26 02:20:41;;;;;;;6.07;1.90;;;7.90;99.90;;;7.05;79.48;99828.91;4978319;28;20196;-75
2023/03/26 02:23:11;;;;;;;4.43;1.83;;;7.80;99.90;;;6.99;79.72;99829.53;4978261;28;20193;-75
2023/03/26 02:25:44;;;;;;;6.20;2.90;;;7.80;99.90;;;6.97;79.76;99826.22;4978004;28;20229;-75
2023/03/26 02:28:17;;;;;;;6.23;2.00;;;7.80;99.90;;;6.97;79.30;99828.03;4977939;28;20216;-75
2023/03/26 02:30:49;;;;;;;4.50;2.00;;;7.70;99.90;;;6.97;79.01;99826.22;4978111;28;20200;-75
2023/03/26 02:33:21;;;;;;;8.27;1.67;;;7.70;99.90;;;6.92;79.02;99817.88;4977726;28;20585;-75
2023/03/26 02:35:53;;;;;;;5.33;2.23;;;7.70;99.90;;;6.90;79.11;99824.34;4977876;28;20232;-75
2023/03/26 02:38:26;;;;;;;5.20;1.63;;;7.70;99.90;;;6.88;79.38;99831.66;4978623;28;20245;-74
2023/03/26 02:40:58;;;;;;;7.43;3.63;;;7.60;99.90;;;6.88;79.04;99826.34;4977645;28;20676;-74
2023/03/26 02:43:31;;;;;;;7.17;1.90;;;7.70;99.90;;;6.84;79.12;99830.31;4977841;28;20197;-74
2023/03/26 02:46:03;;;;;;;6.37;1.93;;;7.60;99.90;;;6.80;79.12;99834.28;4977762;28;20225;-74
2023/03/26 02:48:35;;;;;;;7.43;1.90;;;7.60;99.90;;;6.76;79.36;99830.25;4978840;28;20276;-74
2023/03/26 02:51:08;;;;;;;5.40;1.80;;;7.60;99.90;;;6.79;79.55;99832.59;4977729;28;20208;-75
2023/03/26 02:53:40;;;;;;;2.70;1.70;;;7.60;99.90;;;6.77;79.00;99840.75;4977700;28;20208;-75
2023/03/26 02:56:13;;;;;;;5.17;1.83;;;7.60;99.90;;;6.78;79.12;99834.41;4977552;28;20279;-75
2023/03/26 02:58:47;;;;;;;6.43;1.90;;;7.60;99.90;;;6.70;79.30;99839.72;4977524;28;20217;-75
2023/03/26 03:01:19;;;;;;;3.43;1.60;;;7.50;99.90;;;6.72;79.57;99834.22;4977599;28;20193;-75
2023/03/26 03:03:50;;;;;;;5.83;1.90;;;7.50;99.90;;;6.69;79.19;99831.88;4977238;28;20637;-75
2023/03/26 03:06:25;;;;;;;5.60;1.80;;;7.50;99.90;;;6.71;79.22;99835.22;4977514;28;20232;-75
2023/03/26 03:08:57;;;;;;;6.37;1.67;;;7.50;99.90;;;6.75;79.25;99831.25;4977416;28;20287;-75
2023/03/26 03:11:29;;;;;;;4.63;1.63;;;7.50;99.90;;;6.73;79.18;99828.75;4977381;28;20196;-75
2023/03/26 03:14:03;;;;;;;6.07;1.60;;;7.50;99.90;;;6.70;79.15;99829.06;4977255;28;20204;-75
2023/03/26 03:16:35;;;;;;;2.83;1.57;;;7.50;99.90;;;6.71;79.44;99824.59;4977220;28;20232;-75
2023/03/26 03:19:07;;;;;;;4.27;2.10;;;7.50;99.90;;;6.72;79.63;99826.25;4977208;28;20185;-75
2023/03/26 03:21:37;;;;;;;3.50;1.80;;;7.50;99.90;;;6.73;79.48;99820.78;4977204;28;20193;-74
2023/03/26 03:24:12;;;;;;;5.33;1.50;;;7.50;99.90;;;6.71;79.60;99813.97;4977096;28;20205;-74
2023/03/26 03:26:44;;;;;;;5.67;1.87;;;7.50;99.90;;;6.73;79.79;99814.63;4976722;28;20735;-75
2023/03/26 03:29:17;;;;;;;6.73;2.20;;;7.50;99.90;;;6.73;80.11;99811.97;4976858;28;20220;-74
2023/03/26 03:31:49;;;;;;;3.73;1.70;;;7.50;99.90;;;6.71;80.18;99811.28;4979174;28;20197;-73
2023/03/26 03:34:22;;;;;;;6.07;2.43;;;7.50;99.90;;;6.72;80.58;99804.97;4985345;28;20182;-74
2023/03/26 03:36:53;;;;;;;7.10;2.23;;;7.70;99.90;;;6.72;80.44;99810.28;4980529;28;20225;-73
2023/03/26 03:39:26;;;;;;;3.90;1.90;;;7.50;99.90;;;6.71;80.67;99800.66;4984962;28;20193;-74
2023/03/26 03:41:58;;;;;;;8.03;2.50;;;7.50;99.90;;;6.66;80.81;99814.41;4983906;28;20193;-74
2023/03/26 03:44:31;;;;;;;6.07;2.30;;;7.50;99.90;;;6.68;80.40;99811.63;4977380;28;20634;-75
2023/03/26 03:47:03;;;;;;;4.53;1.80;;;7.50;99.90;;;6.68;80.42;99811.63;4976678;28;20212;-74
2023/03/26 03:49:35;;;;;;;6.00;2.03;;;7.50;99.90;;;6.62;80.48;99816.56;4976731;28;20194;-75
2023/03/26 03:52:07;;;;;;;7.10;2.00;;;7.40;99.90;;;6.59;80.21;99816.03;4976360;28;20650;-74
2023/03/26 03:54:39;;;;;;;5.80;1.87;;;7.40;99.90;;;6.58;80.08;99809.88;4976577;28;20201;-75
2023/03/26 03:57:11;;;;;;;9.33;2.53;;;7.40;99.90;;;6.55;79.21;99810.19;4976459;28;20189;-75
2023/03/26 03:59:46;;;;;;;4.43;2.23;;;7.40;99.90;;;6.56;78.84;99809.22;4977252;28;20193;-75
2023/03/26 04:02:24;;;;;;;5.80;2.03;;;7.30;99.90;;;6.49;78.55;99804.69;4976273;28;20682;-75
2023/03/26 04:04:57;;;;;;;4.10;1.80;;;7.30;99.90;;;6.51;77.34;99808.00;4976423;28;20424;-75
2023/03/26 04:07:31;;;;;;;5.40;1.83;;;7.30;99.90;;;6.49;77.10;99808.19;4976391;28;20193;-75
2023/03/26 04:10:04;;;;;;;6.87;1.90;;;7.30;99.90;;;6.48;77.03;99809.16;4976043;28;20661;-75
2023/03/26 04:12:36;;;;;;;4.93;1.87;;;7.30;99.90;;;6.46;76.26;99811.16;4975929;28;20197;-75
2023/03/26 04:15:09;;;;;;;3.63;1.60;;;7.30;99.90;;;6.44;76.06;99814.94;4976094;28;20229;-75
2023/03/26 04:17:43;;;;;;;4.33;1.47;;;7.20;99.90;;;6.44;76.15;99813.09;4976282;28;20232;-75
2023/03/26 04:20:18;;;;;;;6.30;1.50;;;7.20;99.90;;;6.40;76.35;99805.63;4976100;28;20193;-75
2023/03/26 04:22:49;;;;;;;3.80;1.27;;;7.20;99.90;;;6.36;76.52;99813.06;4976064;28;20196;-75
2023/03/26 04:25:29;;;;;;;6.53;2.00;;;7.20;99.90;;;6.39;76.79;99806.59;4975787;28;20232;-75
2023/03/26 04:28:05;;;;;;;6.10;2.20;;;7.20;99.90;;;6.33;76.91;99813.38;4975704;28;20223;-74
2023/03/26 04:30:41;;;;;;;3.90;1.77;;;7.10;99.90;;;6.32;77.34;99813.53;4975909;28;20200;-74
2023/03/26 04:33:15;;;;;;;4.03;1.60;;;7.10;99.90;;;6.29;77.63;99803.22;4975884;28;20192;-75
2023/03/26 04:35:47;;;;;;;5.10;1.63;;;7.10;99.90;;;6.25;78.30;99808.00;4975433;28;20736;-75
2023/03/26 04:38:19;;;;;;;7.03;2.13;;;7.10;99.90;;;6.26;78.86;99812.34;4975394;28;20248;-75
2023/03/26 04:40:51;;;;;;;5.23;2.17;;;7.00;99.90;;;6.23;79.08;99810.00;4975427;28;20325;-75
2023/03/26 04:43:23;;;;;;;6.73;2.23;;;7.00;99.90;;;6.18;79.96;99812.28;4975715;28;20596;-75
2023/03/26 04:46:01;;;;;;;5.77;1.93;;;7.00;99.90;;;6.16;80.83;99816.09;4975597;28;20239;-75
2023/03/26 04:48:33;;;;;;;4.53;1.90;;;7.00;99.90;;;6.14;81.21;99810.91;4975358;28;20558;-74
2023/03/26 04:51:06;;;;;;;5.27;2.10;;;7.00;99.90;;;6.17;81.35;99821.22;4975760;28;20541;-74
2023/03/26 04:53:38;;;;;;;6.07;2.20;;;7.00;99.90;;;6.10;81.81;99809.53;4975549;28;20189;-74
2023/03/26 04:56:26;;;;;;;5.40;2.23;;;6.90;99.90;;;6.11;81.98;99811.22;4975374;28;20241;-75
2023/03/26 04:59:02;;;;;;;5.03;1.80;;;6.90;99.90;;;6.08;82.07;99807.06;4975080;28;20625;-74
2023/03/26 05:01:36;;;;;;;5.60;2.47;;;6.90;99.90;;;6.09;82.28;99815.88;4975369;28;20192;-74
2023/03/26 05:04:08;;;;;;;4.43;2.00;;;6.90;99.90;;;6.11;82.41;99814.72;4976135;28;20197;-74
2023/03/26 05:06:41;;;;;;;6.33;2.57;;;6.90;99.90;;;6.12;82.52;99812.91;4975165;28;20268;-74
2023/03/26 05:09:13;;;;;;;7.67;2.40;;;7.00;99.90;;;6.18;82.26;99809.63;4975183;28;20199;-75
2023/03/26 05:11:45;;;;;;;7.97;2.10;;;7.00;99.90;;;6.20;82.17;99810.28;4975215;28;20223;-75
2023/03/26 05:14:17;;;;;;;5.30;2.23;;;7.00;99.90;;;6.22;82.19;99813.63;4975118;28;20193;-75
2023/03/26 05:16:53;;;;;;;7.80;2.33;;;7.00;99.90;;;6.23;81.92;99810.00;4974717;28;20233;-75
2023/03/26 05:19:24;;;;;;;6.93;2.07;;;7.00;99.90;;;6.27;81.77;99803.34;4974723;28;20213;-75
2023/03/26 05:21:56;;;;;;;6.00;2.30;;;7.10;99.90;;;6.30;81.19;99805.69;4975107;28;20275;-74
2023/03/26 05:24:28;;;;;;;10.67;2.13;;;7.10;99.90;;;6.33;81.03;99810.72;4974706;28;20558;-75
2023/03/26 05:27:00;;;;;;;5.07;2.03;;;7.10;99.90;;;6.36;80.66;99807.75;4974976;28;20215;-75
2023/03/26 05:29:32;;;;;;;7.30;2.10;;;7.20;99.90;;;6.36;80.85;99805.09;4974453;28;20223;-75
2023/03/26 05:32:06;;;;;;;5.60;2.30;;;7.20;99.90;;;6.39;80.68;99799.47;4974819;28;20193;-75
2023/03/26 05:34:38;;;;;;;6.77;2.27;;;7.20;99.90;;;6.38;80.42;99797.78;4974584;28;20659;-75
2023/03/26 05:37:10;;;;;;;8.57;2.37;;;7.20;99.90;;;6.38;80.15;99796.94;4973866;28;20580;-75
2023/03/26 05:39:44;;;;;;;5.50;2.53;;;7.20;99.90;;;6.36;80.22;99802.44;4974774;28;20250;-75
2023/03/26 05:42:16;;;;;;;8.13;2.43;;;7.20;99.90;;;6.35;80.33;99803.44;4974572;28;20189;-75
2023/03/26 05:44:48;;;;;;;8.57;2.60;;;7.20;99.90;;;6.38;80.16;99789.81;4974482;28;20641;-75
2023/03/26 05:47:22;;;;;;;7.53;2.90;;;7.20;99.90;;;6.36;80.53;99802.44;4974841;28;20189;-75
2023/03/26 05:49:54;;;;;;;7.10;2.10;;;7.20;99.90;;;6.37;80.65;99803.28;4974992;28;20189;-75
2023/03/26 05:52:26;;;;;;;7.40;2.70;;;7.20;99.90;;;6.37;80.77;99796.13;4974413;28;20189;-75
2023/03/26 05:54:58;;;;;;;8.07;2.80;;;7.20;99.90;;;6.37;80.88;99809.41;4974567;28;20229;-75
2023/03/26 05:57:32;;;;;;;5.60;2.60;;;7.20;99.90;;;6.38;80.98;99800.44;4974569;28;20193;-75
2023/03/26 06:00:05;;;;;;;4.17;2.50;;;7.20;99.90;;;6.38;81.06;99803.09;4974467;28;20213;-75
2023/03/26 06:02:38;;;;;;;7.37;2.70;;;7.20;99.90;;;6.38;80.76;99800.44;4974206;28;20204;-75
2023/03/26 06:05:11;;;;;;;7.63;3.47;;;7.20;99.90;;;6.40;81.15;99803.81;4975561;28;20319;-74
2023/03/26 06:07:43;;;;;;;6.63;2.83;;;7.20;99.90;;;6.44;80.83;99802.47;4976129;28;20212;-74
2023/03/26 06:10:15;;;;;;;6.73;3.00;;;7.20;99.90;;;6.44;80.58;99798.97;4976381;28;20193;-74
2023/03/26 06:12:49;;;;;;;8.10;3.10;;;7.30;99.90;;;6.45;80.94;99803.31;4975964;28;20192;-74
2023/03/26 06:15:21;;;;;;;6.77;3.40;;;7.30;99.90;;;6.46;80.67;99795.19;4975809;28;20233;-74
2023/03/26 06:17:54;;;;;;;8.40;3.10;;;7.30;99.90;;;6.46;81.04;99792.53;4974677;28;20705;-73
2023/03/26 06:20:27;;;;;;;8.67;2.93;;;7.30;99.90;;;6.48;80.76;99792.38;4974486;28;20212;-74
2023/03/26 06:22:58;;;;;;;10.77;3.10;;;7.30;99.90;;;6.49;80.81;99781.59;4974463;28;20204;-75
2023/03/26 06:25:30;;;;;;;6.97;3.50;;;7.30;99.90;;;6.54;80.76;99781.13;4974474;28;20298;-75
2023/03/26 06:28:02;;;;;;;8.53;3.10;;;7.30;99.90;;;6.55;80.87;99777.44;4974773;28;20221;-74
2023/03/26 06:30:34;;;;;;;6.07;3.20;;;7.40;99.90;;;6.56;81.03;99779.97;4974108;28;20665;-74
2023/03/26 06:33:08;;;;;;;7.70;3.10;;;7.40;99.90;;;6.57;81.01;99776.31;4974366;28;20217;-74
2023/03/26 06:35:41;;;;;;;5.47;2.83;;;7.40;99.90;;;6.59;80.86;99778.81;4974315;28;20234;-75
2023/03/26 06:38:13;;;;;;;5.07;3.17;;;7.40;99.90;;;6.59;80.93;99768.16;4975138;28;20544;-75
2023/03/26 06:40:45;;;;;;;6.03;2.80;;;7.40;99.90;;;6.61;81.32;99772.31;4974303;28;20224;-75
2023/03/26 06:43:17;;;;;;;6.63;3.10;;;7.40;99.90;;;6.62;81.18;99773.16;4974296;28;20193;-75
2023/03/26 06:45:52;;;;;;;10.17;3.33;;;7.50;99.90;;;6.62;80.66;99766.03;4974207;28;20229;-75
2023/03/26 06:48:25;;;;;;;7.23;3.30;;;7.40;99.90;;;6.64;80.31;99764.03;4975324;28;20189;-75
2023/03/26 06:50:57;;;;;;;5.00;2.77;;;7.50;99.90;;;6.66;80.14;99760.38;4977925;28;20189;-75
2023/03/26 06:53:29;;;;;;;11.33;3.17;;;7.50;99.90;;;6.69;80.38;99768.03;4977880;28;20230;-75
2023/03/26 06:56:02;;;;;;;11.07;3.40;;;7.50;99.90;;;6.68;80.21;99767.19;4977473;28;20229;-75
2023/03/26 06:58:34;;;;;;;7.60;2.70;;;7.50;99.90;;;6.69;80.65;99763.56;4977566;28;20202;-75
2023/03/26 07:01:05;;;;;;;7.83;3.20;;;7.50;99.90;;;6.71;80.79;99769.56;4977703;28;20193;-75
2023/03/26 07:03:38;;;;;;;11.67;3.70;;;7.50;99.90;;;6.74;80.28;99766.59;4977352;28;20621;-75
2023/03/26 07:06:12;;;;;;;8.50;3.70;;;7.50;99.90;;;6.75;80.54;99772.72;4977533;28;20280;-75
2023/03/26 07:08:43;;;;;;;6.17;2.93;;;7.60;99.90;;;6.77;80.62;99771.59;4977579;28;20188;-74
2023/03/26 07:11:18;;;;;;;8.87;3.10;;;7.60;99.90;;;6.79;80.73;99768.75;4977219;28;20560;-74
2023/03/26 07:13:50;;;;;;;7.83;3.23;;;7.60;99.90;;;6.79;80.18;99768.75;4977487;28;20204;-74
2023/03/26 07:16:22;;;;;;;7.90;3.00;;;7.60;99.90;;;6.79;80.49;99761.59;4977437;28;20236;-74
2023/03/26 07:18:55;;;;;;;6.90;3.00;;;7.60;99.90;;;6.83;80.19;99754.16;4977304;28;20204;-75
2023/03/26 07:21:28;;;;;;;6.63;3.10;;;7.60;99.90;;;6.85;80.48;99752.97;4977348;28;20190;-75
2023/03/26 07:24:01;;;;;;;6.97;2.50;;;7.70;99.90;;;6.89;80.82;99754.34;4977174;28;20204;-75
2023/03/26 07:26:49;;;;;;;8.10;3.37;;;7.70;99.90;;;6.91;79.43;99747.03;4977071;28;20236;-75
2023/03/26 07:29:33;;;;;;;9.70;3.07;;;7.70;99.90;;;6.93;79.46;99739.72;4976624;28;20675;-75
2023/03/26 07:32:19;;;;;;;6.70;2.97;;;7.70;99.90;;;6.97;79.50;99740.22;4977029;28;20208;-74
2023/03/26 07:35:01;;;;;;;6.77;2.67;;;7.80;99.90;;;7.01;79.05;99736.25;4976899;28;20280;-74
2023/03/26 07:37:49;;;;;;;6.67;2.60;;;7.80;99.90;;;7.05;78.71;99732.28;4976755;28;20641;-75
2023/03/26 07:40:45;;;;;;;6.87;3.03;;;7.80;99.90;;;7.07;78.79;99733.78;4976880;28;20228;-75
2023/03/26 07:43:33;;;;;;;10.23;2.73;;;7.90;99.90;;;7.14;78.23;99736.63;4976848;28;20213;-75
2023/03/26 07:46:04;;;;;;;7.13;2.73;;;7.90;99.90;;;7.16;78.17;99742.59;4976654;28;20270;-75
2023/03/26 07:48:47;;;;;;;6.20;2.80;;;8.00;99.90;;;7.33;78.02;99733.66;4977199;28;20597;-75
2023/03/26 07:51:20;;;;;;;9.97;3.30;;;8.10;99.90;;;7.48;77.08;99734.69;4976386;28;20636;-75
2023/03/26 07:53:55;;;;;;;6.93;2.93;;;8.20;99.90;;;7.60;76.45;99728.03;4976314;28;20203;-75
2023/03/26 07:56:34;;;;;;;8.93;2.87;;;8.30;99.90;;;7.59;76.59;99730.88;4976420;28;20286;-75
2023/03/26 07:59:17;;;;;;;8.87;2.53;;;8.40;99.90;;;7.59;73.13;99729.03;4976307;28;20195;-75
2023/03/26 08:02:04;;;;;;;6.90;2.30;;;8.40;99.50;;;7.58;73.52;99730.03;4976179;28;20189;-75
2023/03/26 08:04:56;;;;;;;5.60;2.27;;;8.40;99.40;;;7.57;74.36;99722.19;4976520;28;20193;-74
2023/03/26 08:07:45;;;;;;;4.97;2.30;;;8.40;99.50;;;7.58;75.44;99727.38;4976514;28;20201;-75
2023/03/26 08:10:27;;;;;;;5.67;2.40;;;8.40;99.90;;;7.61;74.15;99724.38;4976032;28;20197;-75
2023/03/26 08:13:10;;;;;;;9.13;2.30;;;8.40;99.50;;;7.60;74.63;99721.88;4976389;28;20197;-74
2023/03/26 08:15:53;;;;;;;7.97;2.40;;;8.40;99.70;;;7.62;74.34;99715.38;4976163;28;20255;-74
2023/03/26 08:18:40;;;;;;;7.60;2.30;;;8.40;99.60;;;7.64;73.47;99717.88;4976342;28;20252;-75
2023/03/26 08:21:20;;;;;;;5.90;2.37;;;8.50;99.40;;;7.71;74.59;99718.88;4976375;28;20219;-75
2023/03/26 08:24:02;;;;;;;8.37;2.40;;;8.50;99.80;;;7.80;74.65;99717.88;4976280;28;20189;-75
2023/03/26 08:26:51;;;;;;;10.43;2.23;;;8.60;99.70;;;7.91;74.39;99714.06;4975993;28;20233;-76
2023/03/26 08:29:41;;;;;;;7.47;2.30;;;8.70;99.60;;;7.99;73.98;99711.34;4976546;28;20323;-76
2023/03/26 08:32:20;;;;;;;5.30;2.23;;;8.80;99.30;;;8.04;73.34;99719.69;4975121;28;20657;-76
2023/03/26 08:34:52;;;;;;;4.53;2.10;;;8.80;99.20;;;8.12;73.19;99712.50;4975721;28;21035;-76
2023/03/26 08:37:28;;;;;;;8.03;2.40;;;8.90;99.10;;;8.18;72.86;99716.34;4975973;28;20215;-76
2023/03/26 08:40:01;;;;;;;5.87;1.97;;;9.00;98.80;;;8.16;73.64;99719.16;4977487;28;20221;-74
2023/03/26 08:43:24;;;;;;;7.63;2.37;;;8.90;99.10;;;8.17;72.58;99722.66;4980069;28;20201;-75
2023/03/26 08:46:24;;;;;;;5.43;2.10;;;8.90;98.90;;;8.19;73.10;99720.66;4979396;28;20229;-75
2023/03/26 08:49:50;;;;;;;6.67;2.07;;;9.00;98.90;;;8.20;72.77;99716.16;4979146;28;20200;-76
2023/03/26 08:52:54;;;;;;;4.60;2.00;;;9.00;98.80;;;8.24;73.30;99726.31;4979057;28;20209;-75
2023/03/26 08:55:43;;;;;;;6.13;1.97;;;9.00;98.90;;;8.23;71.61;99724.66;4975617;28;20224;-76
2023/03/26 08:59:02;;;;;;;5.10;2.17;;;9.00;98.30;;;8.24;73.31;99731.66;4975633;28;20197;-75
2023/03/26 09:02:10;;;;;;;5.73;2.73;;;9.00;99.00;;;8.23;73.97;99721.97;4975459;28;20221;-76
2023/03/26 09:05:29;;;;;;;5.50;2.10;;;9.00;99.10;;;8.26;73.83;99716.31;4975172;28;20700;-75
2023/03/26 09:08:56;;;;;;;7.17;2.10;;;9.00;99.30;;;8.30;73.72;99715.00;4975448;28;20208;-75
2023/03/26 09:12:11;;;;;;;5.73;2.40;;;9.10;99.20;;;8.30;74.58;99720.34;4963142;28;20208;-75
2023/03/26 09:15:38;;;;;;;6.13;2.40;;;9.00;99.60;;;8.33;74.72;99713.81;4963464;28;20220;-76
2023/03/26 09:18:59;;;;;;;7.37;2.37;;;9.10;99.80;;;8.32;74.62;99715.66;4958768;28;20618;-76
2023/03/26 09:21:58;;;;;;;6.63;2.33;;;9.10;99.50;;;8.34;73.35;99715.50;4955867;28;20239;-76
2023/03/26 09:25:17;;;;;;;4.87;2.20;;;9.10;99.10;;;8.38;74.57;99714.16;4975514;28;20197;-76
2023/03/26 09:28:22;;;;;;;5.80;2.23;;;9.10;99.40;;;8.36;74.64;99722.31;4972169;28;20701;-75
2023/03/26 09:31:34;;;;;;;8.23;2.93;;;9.10;99.50;;;8.45;75.99;99713.31;4972678;28;20220;-75
2023/03/26 09:34:30;;;;;;;7.47;2.37;;;9.20;99.90;;;8.49;76.11;99709.25;4975102;28;20216;-75
2023/03/26 09:37:24;;;;;;;9.73;2.90;;;9.20;99.90;;;8.52;77.85;99714.28;4975020;28;20203;-76
2023/03/26 09:40:16;;;;;;;8.20;3.20;;;9.30;99.90;;;8.53;77.97;99718.59;4974570;28;20658;-75
2023/03/26 09:42:54;;;;;;;9.70;3.10;;;9.30;99.90;;;8.55;78.51;99718.44;4974828;28;20209;-76
2023/03/26 09:45:59;;;;;;;11.47;4.10;;;9.30;99.90;;;8.55;77.71;99719.28;4974936;28;20228;-76
2023/03/26 09:49:21;;;;;;;8.03;3.90;;;9.30;99.90;;;8.55;77.69;99713.09;4975000;28;20192;-74
2023/03/26 09:52:12;;;;;;;12.93;3.77;;;9.30;99.90;;;8.56;77.05;99715.56;4929692;28;20577;-74
2023/03/26 09:55:23;;;;;;;6.67;3.63;;;9.30;99.90;;;8.63;78.54;99713.88;4974917;28;20200;-75
2023/03/26 09:58:32;;;;;;;7.10;3.47;;;9.40;99.90;;;8.62;76.48;99712.25;4958097;28;20205;-75
2023/03/26 10:01:15;;;;;;;9.90;3.87;;;9.40;99.90;;;8.65;76.94;99709.22;4972550;28;20251;-75
2023/03/26 10:04:25;;;;;;;5.50;3.03;;;9.40;99.90;;;8.65;76.09;99703.06;4974732;28;20247;-75
2023/03/26 10:07:05;;;;;;;11.27;3.37;;;9.40;99.90;;;8.75;77.02;99702.84;4974465;28;20328;-74
2023/03/26 10:09:49;;;;;;;6.87;3.00;;;9.50;99.90;;;8.71;76.13;99699.69;4973378;28;20560;-76
2023/03/26 10:12:37;;;;;;;9.23;3.60;;;9.50;99.90;;;8.78;76.07;99705.16;4972693;28;20837;-76
2023/03/26 10:15:26;;;;;;;11.77;3.83;;;9.50;99.90;;;8.85;76.08;99700.78;4974463;28;20251;-74
2023/03/26 10:18:14;;;;;;;10.70;4.13;;;9.60;99.90;;;8.91;76.16;99702.75;4974147;28;20670;-76
2023/03/26 10:21:12;;;;;;;10.77;3.63;;;9.60;99.90;;;8.98;74.84;99693.88;4974446;28;20232;-76
2023/03/26 10:24:30;;;;;;;8.57;3.77;;;9.70;99.80;;;9.09;75.22;99695.31;4975833;28;20192;-76
2023/03/26 10:27:17;;;;;;;10.73;3.23;;;9.80;99.90;;;9.18;74.22;99694.25;4956386;29;20217;-76
2023/03/26 10:30:32;;;;;;;8.93;3.37;;;9.90;99.50;;;9.25;72.88;99689.88;4975830;28;20208;-76
2023/03/26 10:33:14;;;;;;;10.90;3.10;;;10.00;99.20;;;9.33;73.09;99684.47;4977069;28;20212;-76
2023/03/26 10:36:12;;;;;;;8.73;3.20;;;10.00;98.90;;;9.40;72.35;99680.09;4977613;28;20233;-77
2023/03/26 10:39:02;;;;;;;7.73;3.33;;;10.10;99.00;;;9.46;70.80;99679.38;4977611;28;20215;-76
2023/03/26 10:41:49;;;;;;;8.20;3.07;;;10.20;98.50;;;9.53;71.86;99693.66;4977994;28;20213;-77
2023/03/26 10:44:45;;;;;;;8.07;2.83;;;10.30;98.50;;;9.54;73.47;99683.81;4978165;28;20197;-76
2023/03/26 10:47:55;;;;;;;7.37;3.00;;;10.20;99.20;;;9.55;73.46;99683.66;4966277;28;20688;-76
2023/03/26 10:50:49;;;;;;;9.27;3.20;;;10.30;98.70;;;9.55;72.41;99688.16;4977583;28;20273;-76
2023/03/26 10:53:34;;;;;;;6.60;2.83;;;10.30;98.70;;;9.57;71.93;99684.28;4977950;28;20198;-76
2023/03/26 10:56:21;;;;;;;6.87;2.97;;;10.30;98.30;;;9.58;72.10;99677.94;4977565;28;20224;-75
2023/03/26 10:58:55;;;;;;;7.97;3.03;;;10.30;98.50;;;9.60;71.55;99683.94;4977527;28;20197;-76
2023/03/26 11:01:41;;;;;;;8.27;3.00;;;10.30;98.20;;;9.61;71.40;99682.09;4978034;28;20216;-75
2023/03/26 11:04:29;;;;;;;8.03;3.40;;;10.30;98.30;;;9.64;73.69;99674.53;4978071;28;20218;-75
2023/03/26 11:07:11;;;;;;;4.93;3.03;;;10.30;99.00;;;9.62;71.36;99671.22;4977384;28;20600;-75
2023/03/26 11:09:53;;;;;;;8.07;2.97;;;10.30;97.90;;;9.60;71.13;99675.91;4977908;28;20197;-75
2023/03/26 11:12:35;;;;;;;6.27;2.97;;;10.30;97.60;;;9.64;70.31;99669.22;4978364;28;20194;-75
2023/03/26 11:15:22;;;;;;;5.00;2.40;;;10.30;97.30;;;9.65;70.50;99670.88;4978608;28;20255;-75
2023/03/26 11:18:06;;;;;;;8.63;3.03;;;10.30;97.50;;;9.69;69.76;99669.47;4977482;28;20255;-75
2023/03/26 11:20:48;;;;;;;6.37;2.70;;;10.40;97.40;;;9.74;69.93;99665.44;4977330;28;20201;-75
2023/03/26 11:23:41;;;;;;;5.50;3.10;;;10.40;97.50;;;9.67;66.86;99666.16;4977202;28;20208;-75
2023/03/26 11:26:17;;;;;;;7.00;3.10;;;10.40;96.30;;;9.64;67.30;99669.22;4978265;28;20232;-74
2023/03/26 11:29:21;;;;;;;8.83;3.03;;;10.30;96.00;;;9.79;68.27;99660.41;4983893;28;20217;-73